createdAt,value
2023-02-25T00:00:11.067Z,100898.72
2023-02-25T00:02:47.476Z,100895.75
2023-02-25T00:05:21.877Z,100893.72
2023-02-25T00:07:54.957Z,100902.31
2023-02-25T00:10:28.057Z,100901.19
2023-02-25T00:13:17.096Z,100906.97
2023-02-25T00:15:50.793Z,100904.38
2023-02-25T00:18:23.572Z,100900.53
2023-02-25T00:20:57.707Z,100899.84
2023-02-25T00:23:30.560Z,100891.31
2023-02-25T00:26:05.339Z,100885.31
2023-02-25T00:28:39.882Z,100883.94
2023-02-25T00:31:15.512Z,100874.88
2023-02-25T00:33:48.777Z,100885.41
2023-02-25T00:36:24.876Z,100881.34
2023-02-25T00:38:58.867Z,100882.34
2023-02-25T00:41:31.710Z,100885.19
2023-02-25T00:44:05.124Z,100885.53
2023-02-25T00:46:38.046Z,100906.97
2023-02-25T00:49:13.358Z,100904.34
2023-02-25T00:51:51.160Z,100902.75
2023-02-25T00:54:53.082Z,100899.59
2023-02-25T00:57:25.984Z,100898.47
2023-02-25T00:59:58.674Z,100893.56
2023-02-25T01:02:31.698Z,100900.72
2023-02-25T01:05:05.047Z,100903.78
2023-02-25T01:07:39.668Z,100901.97
2023-02-25T01:10:12.655Z,100888.38
2023-02-25T01:12:45.740Z,100894.81
2023-02-25T01:15:18.502Z,100896.19
2023-02-25T01:17:51.295Z,100909.44
2023-02-25T01:20:24.483Z,100908.09
2023-02-25T01:22:59.037Z,100920.00
2023-02-25T01:25:31.930Z,100921.13
2023-02-25T01:28:06.727Z,100912.53
2023-02-25T01:30:39.522Z,100910.59
2023-02-25T01:33:12.383Z,100912.53
2023-02-25T01:35:45.351Z,100912.09
2023-02-25T01:38:19.952Z,100907.53
2023-02-25T01:40:58.986Z,100916.06
2023-02-25T01:43:31.768Z,100909.13
2023-02-25T01:46:04.768Z,100905.81
2023-02-25T01:48:40.547Z,100921.59
2023-02-25T01:51:14.007Z,100913.44
2023-02-25T01:53:49.328Z,100911.06
2023-02-25T01:56:26.178Z,100906.88
2023-02-25T01:59:00.821Z,100898.72
2023-02-25T02:01:35.844Z,100899.25
2023-02-25T02:04:14.991Z,100900.72
2023-02-25T02:06:50.208Z,100892.00
2023-02-25T02:09:28.450Z,100904.56
2023-02-25T02:12:04.305Z,100908.88
2023-02-25T02:14:39.956Z,100927.03
2023-02-25T02:17:25.324Z,100929.97
2023-02-25T02:20:13.337Z,100933.38
2023-02-25T02:22:55.578Z,100927.25
2023-02-25T02:26:05.484Z,100929.09
2023-02-25T02:29:19.367Z,100931.47
2023-02-25T02:32:08.050Z,100924.88
2023-02-25T02:34:47.409Z,100915.22
2023-02-25T02:37:28.826Z,100919.44
2023-02-25T02:40:17.393Z,100914.00
2023-02-25T02:43:04.972Z,100909.38
2023-02-25T02:45:49.117Z,100908.88
2023-02-25T02:48:29.556Z,100908.22
2023-02-25T02:51:07.310Z,100905.16
2023-02-25T02:53:45.291Z,100909.38
2023-02-25T02:56:23.220Z,100910.72
2023-02-25T02:59:00.575Z,100911.97
2023-02-25T03:01:38.386Z,100905.59
2023-02-25T03:04:20.599Z,100912.31
2023-02-25T03:06:57.074Z,100907.41
2023-02-25T03:09:34.714Z,100913.41
2023-02-25T03:12:07.995Z,100927.47
2023-02-25T03:14:41.533Z,100915.69
2023-02-25T03:17:17.825Z,100912.72
2023-02-25T03:20:06.520Z,100917.38
2023-02-25T03:22:42.177Z,100926.91
2023-02-25T03:25:23.447Z,100929.53
2023-02-25T03:27:58.654Z,100926.13
2023-02-25T03:30:38.865Z,100923.28
2023-02-25T03:33:20.026Z,100921.13
2023-02-25T03:35:58.078Z,100918.97
2023-02-25T03:38:34.279Z,100921.94
2023-02-25T03:41:08.307Z,100918.16
2023-02-25T03:43:47.403Z,100918.16
2023-02-25T03:46:22.920Z,100922.25
2023-02-25T03:48:59.864Z,100927.94
2023-02-25T03:51:36.879Z,100926.31
2023-02-25T03:54:09.800Z,100929.53
2023-02-25T03:56:43.783Z,100940.59
2023-02-25T03:59:18.084Z,100928.84
2023-02-25T04:01:54.415Z,100945.47
2023-02-25T04:04:27.597Z,100946.16
2023-02-25T04:07:01.784Z,100941.75
2023-02-25T04:09:35.121Z,100944.59
2023-02-25T04:12:08.401Z,100932.91
2023-02-25T04:14:41.182Z,100937.22
2023-02-25T04:17:14.637Z,100939.28
2023-02-25T04:19:47.333Z,100931.13
2023-02-25T04:22:21.496Z,100949.38
2023-02-25T04:24:54.952Z,100952.31
2023-02-25T04:27:28.610Z,100957.84
2023-02-25T04:30:01.491Z,100961.50
2023-02-25T04:32:34.268Z,100961.66
2023-02-25T04:35:11.730Z,100964.06
2023-02-25T04:37:48.108Z,100954.88
2023-02-25T04:40:22.846Z,100959.78
2023-02-25T04:42:55.867Z,100961.50
2023-02-25T04:45:28.959Z,100953.78
2023-02-25T04:48:01.829Z,100954.13
2023-02-25T04:50:35.172Z,100969.31
2023-02-25T04:53:09.919Z,100965.81
2023-02-25T04:55:42.637Z,100965.06
2023-02-25T04:58:15.758Z,100961.44
2023-02-25T05:00:49.160Z,100970.50
2023-02-25T05:03:21.963Z,100973.91
2023-02-25T05:05:54.734Z,100965.22
2023-02-25T05:08:29.170Z,100962.69
2023-02-25T05:11:02.730Z,100958.97
2023-02-25T05:13:35.537Z,100975.31
2023-02-25T05:16:11.516Z,100960.22
2023-02-25T05:18:46.145Z,100976.63
2023-02-25T05:21:21.094Z,100977.09
2023-02-25T05:23:55.320Z,100969.59
2023-02-25T05:26:28.056Z,100973.72
2023-02-25T05:29:00.956Z,100973.03
2023-02-25T05:31:33.807Z,100973.03
2023-02-25T05:34:07.460Z,100983.66
2023-02-25T05:36:41.296Z,100979.81
2023-02-25T05:39:17.892Z,100984.59
2023-02-25T05:41:51.813Z,100982.09
2023-02-25T05:44:25.044Z,100978.38
2023-02-25T05:46:57.917Z,100984.59
2023-02-25T05:49:30.831Z,100980.94
2023-02-25T05:52:03.355Z,100981.41
2023-02-25T05:54:39.012Z,100993.41
2023-02-25T05:57:14.095Z,101001.59
2023-02-25T05:59:48.125Z,101022.44
2023-02-25T06:02:21.033Z,101044.59
2023-02-25T06:04:53.916Z,101037.31
2023-02-25T06:07:27.156Z,101038.69
2023-02-25T06:10:01.882Z,101012.28
2023-02-25T06:12:38.186Z,100995.22
2023-02-25T06:15:12.002Z,100998.84
2023-02-25T06:17:45.122Z,100995.00
2023-02-25T06:20:18.742Z,100996.75
2023-02-25T06:22:51.697Z,100996.75
2023-02-25T06:25:26.587Z,100998.22
2023-02-25T06:28:00.309Z,100999.59
2023-02-25T06:30:33.441Z,101000.25
2023-02-25T06:33:06.283Z,101004.78
2023-02-25T06:35:39.049Z,101011.56
2023-02-25T06:38:11.834Z,101013.16
2023-02-25T06:40:50.002Z,101011.66
2023-02-25T06:43:23.171Z,101007.72
2023-02-25T06:45:55.981Z,101010.88
2023-02-25T06:48:28.866Z,101031.25
2023-02-25T06:51:02.974Z,101043.41
2023-02-25T06:53:35.999Z,101048.84
2023-02-25T06:56:15.903Z,101039.31
2023-02-25T06:58:49.113Z,101045.53
2023-02-25T07:01:22.852Z,101033.97
2023-02-25T07:03:58.169Z,101052.72
2023-02-25T07:06:31.044Z,101041.84
2023-02-25T07:09:03.774Z,101053.16
2023-02-25T07:11:38.723Z,101059.84
2023-02-25T07:14:14.203Z,101055.16
2023-02-25T07:16:47.386Z,101052.97
2023-02-25T07:19:20.083Z,101050.72
2023-02-25T07:21:52.829Z,101061.25
2023-02-25T07:24:27.083Z,101054.41
2023-02-25T07:27:04.576Z,101057.34
2023-02-25T07:29:37.333Z,101055.75
2023-02-25T07:32:10.213Z,101058.00
2023-02-25T07:34:43.178Z,101058.28
2023-02-25T07:37:16.015Z,101055.69
2023-02-25T07:39:48.972Z,101071.75
2023-02-25T07:42:23.288Z,101065.44
2023-02-25T07:44:56.121Z,101070.28
2023-02-25T07:47:29.062Z,101073.00
2023-02-25T07:50:06.758Z,101073.69
2023-02-25T07:52:39.818Z,101080.19
2023-02-25T07:55:13.255Z,101084.69
2023-02-25T07:57:48.954Z,101083.38
2023-02-25T08:00:22.336Z,101075.13
2023-02-25T08:02:55.441Z,101090.41
2023-02-25T08:05:28.460Z,101083.75
2023-02-25T08:08:01.796Z,101085.69
2023-02-25T08:10:34.981Z,101082.25
2023-02-25T08:13:09.012Z,101090.53
2023-02-25T08:15:42.635Z,101086.63
2023-02-25T08:18:18.006Z,101098.50
2023-02-25T08:20:55.916Z,101112.69
2023-02-25T08:23:28.697Z,101119.47
2023-02-25T08:26:02.047Z,101101.88
2023-02-25T08:28:37.388Z,101110.91
2023-02-25T08:31:12.130Z,101102.28
2023-02-25T08:33:49.729Z,101110.69
2023-02-25T08:36:26.576Z,101102.53
2023-02-25T08:39:00.725Z,101106.47
2023-02-25T08:41:33.404Z,101102.88
2023-02-25T08:44:07.560Z,101100.50
2023-02-25T08:46:41.790Z,101105.84
2023-02-25T08:49:15.190Z,101092.31
2023-02-25T08:51:50.824Z,101108.00
2023-02-25T08:54:24.069Z,101103.75
2023-02-25T08:56:57.242Z,101114.53
2023-02-25T08:59:36.056Z,101103.63
2023-02-25T09:02:15.193Z,101110.41
2023-02-25T09:04:47.977Z,101117.03
2023-02-25T09:07:22.041Z,101106.28
2023-02-25T09:09:55.121Z,101109.34
2023-02-25T09:12:27.982Z,101112.53
2023-02-25T09:15:02.295Z,101123.88
2023-02-25T09:17:35.090Z,101124.34
2023-02-25T09:20:11.301Z,101126.38
2023-02-25T09:22:44.283Z,101140.00
2023-02-25T09:25:17.074Z,101132.97
2023-02-25T09:27:49.803Z,101137.53
2023-02-25T09:30:24.135Z,101149.03
2023-02-25T09:32:56.970Z,101154.09
2023-02-25T09:35:29.834Z,101150.63
2023-02-25T09:38:02.498Z,101155.53
2023-02-25T09:40:35.429Z,101164.25
2023-02-25T09:43:16.061Z,101162.56
2023-02-25T09:45:53.866Z,101169.16
2023-02-25T09:48:30.568Z,101166.66
2023-02-25T09:51:19.504Z,101177.81
2023-02-25T09:53:56.819Z,101185.09
2023-02-25T09:56:31.438Z,101172.47
2023-02-25T09:59:11.585Z,101178.06
2023-02-25T10:01:52.772Z,101181.69
2023-02-25T10:04:33.145Z,101176.72
2023-02-25T10:07:15.091Z,101189.22
2023-02-25T10:09:54.322Z,101181.41
2023-02-25T10:12:32.889Z,101180.97
2023-02-25T10:15:23.222Z,101192.66
2023-02-25T10:18:12.431Z,101188.25
2023-02-25T10:20:53.000Z,101188.00
2023-02-25T10:23:38.068Z,101192.66
2023-02-25T10:26:17.861Z,101182.41
2023-02-25T10:28:55.121Z,101192.06
2023-02-25T10:31:28.452Z,101206.09
2023-02-25T10:34:20.919Z,101210.75
2023-02-25T10:36:56.442Z,101215.38
2023-02-25T10:39:31.224Z,101219.72
2023-02-25T10:42:04.360Z,101218.16
2023-02-25T10:44:37.502Z,101213.84
2023-02-25T10:47:15.092Z,101221.56
2023-02-25T10:50:15.237Z,101212.03
2023-02-25T10:53:00.660Z,101216.81
2023-02-25T10:55:51.748Z,101221.16
2023-02-25T10:58:29.416Z,101212.06
2023-02-25T11:01:06.976Z,101216.81
2023-02-25T11:03:46.446Z,101218.19
2023-02-25T11:06:25.266Z,101220.13
2023-02-25T11:09:00.204Z,101217.28
2023-02-25T11:11:35.925Z,101221.38
2023-02-25T11:14:16.009Z,101223.88
2023-02-25T11:16:48.839Z,101220.22
2023-02-25T11:19:26.770Z,101219.31
2023-02-25T11:22:07.702Z,101227.72
2023-02-25T11:24:42.912Z,101243.41
2023-02-25T11:27:29.400Z,101243.88
2023-02-25T11:30:07.464Z,101245.22
2023-02-25T11:32:44.324Z,101249.78
2023-02-25T11:35:20.741Z,101257.41
2023-02-25T11:37:55.516Z,101260.94
2023-02-25T11:40:31.121Z,101249.56
2023-02-25T11:43:17.050Z,101268.13
2023-02-25T11:45:56.526Z,101271.44
2023-02-25T11:48:34.822Z,101277.78
2023-02-25T11:51:16.276Z,101283.94
2023-02-25T11:54:02.980Z,101278.03
2023-02-25T11:56:39.416Z,101275.41
2023-02-25T11:59:30.211Z,101280.97
2023-02-25T12:02:21.648Z,101275.75
2023-02-25T12:05:35.223Z,101273.81
2023-02-25T12:08:21.967Z,101283.47
2023-02-25T12:11:27.346Z,101278.03
2023-02-25T12:14:24.565Z,101288.03
2023-02-25T12:17:21.422Z,101289.72
2023-02-25T12:20:30.982Z,101292.03
2023-02-25T12:23:45.893Z,101298.63
2023-02-25T12:26:33.284Z,101305.09
2023-02-25T12:29:23.715Z,101308.06
2023-02-25T12:32:18.689Z,101299.84
2023-02-25T12:35:16.285Z,101303.63
2023-02-25T12:38:17.041Z,101300.09
2023-02-25T12:41:09.874Z,101309.88
2023-02-25T12:43:50.744Z,101303.16
2023-02-25T12:46:47.376Z,101300.28
2023-02-25T12:49:49.181Z,101301.91
2023-02-25T12:52:29.543Z,101303.16
2023-02-25T12:55:22.839Z,101305.66
2023-02-25T12:58:05.640Z,101304.81
2023-02-25T13:01:02.919Z,101304.81
2023-02-25T13:03:54.630Z,101297.53
2023-02-25T13:06:56.846Z,101307.63
2023-02-25T13:09:47.788Z,101308.91
2023-02-25T13:12:44.641Z,101305.91
2023-02-25T13:15:21.541Z,101306.09
2023-02-25T13:18:13.260Z,101302.34
2023-02-25T13:21:14.640Z,101301.31
2023-02-25T13:24:11.723Z,101300.47
2023-02-25T13:27:04.933Z,101297.75
2023-02-25T13:29:52.499Z,101297.06
2023-02-25T13:32:33.571Z,101299.09
2023-02-25T13:35:29.150Z,101301.13
2023-02-25T13:38:18.321Z,101304.06
2023-02-25T13:41:01.917Z,101312.06
2023-02-25T13:43:52.082Z,101313.06
2023-02-25T13:46:47.593Z,101314.19
2023-02-25T13:49:48.487Z,101317.59
2023-02-25T13:52:55.355Z,101320.72
2023-02-25T13:55:47.833Z,101327.91
2023-02-25T13:58:43.866Z,101318.34
2023-02-25T14:01:40.188Z,101318.47
2023-02-25T14:04:40.724Z,101324.41
2023-02-25T14:07:22.968Z,101333.75
2023-02-25T14:10:13.395Z,101335.56
2023-02-25T14:13:02.682Z,101328.75
2023-02-25T14:15:48.265Z,101332.06
2023-02-25T14:18:33.222Z,101337.31
2023-02-25T14:21:40.009Z,101344.94
2023-02-25T14:24:20.138Z,101347.88
2023-02-25T14:27:03.382Z,101348.69
2023-02-25T14:29:42.331Z,101363.81
2023-02-25T14:32:28.387Z,101349.25
2023-02-25T14:35:18.811Z,101355.63
2023-02-25T14:38:04.104Z,101364.50
2023-02-25T14:40:46.383Z,101367.91
2023-02-25T14:43:32.259Z,101369.72
2023-02-25T14:46:16.497Z,101374.72
2023-02-25T14:49:00.028Z,101392.34
2023-02-25T14:51:49.388Z,101385.28
2023-02-25T14:54:48.460Z,101393.81
2023-02-25T14:57:51.335Z,101389.94
2023-02-25T15:00:45.641Z,101393.25
2023-02-25T15:03:38.964Z,101398.09
2023-02-25T15:06:32.162Z,101404.03
2023-02-25T15:09:23.687Z,101397.44
2023-02-25T15:12:27.837Z,101413.56
2023-02-25T15:15:21.199Z,101413.44
2023-02-25T15:18:17.613Z,101420.34
2023-02-25T15:20:52.370Z,101422.75
2023-02-25T15:23:50.309Z,101423.56
2023-02-25T15:26:26.686Z,101434.47
2023-02-25T15:28:59.984Z,101427.28
2023-02-25T15:31:34.508Z,101437.41
2023-02-25T15:34:34.936Z,101437.41
2023-02-25T15:37:20.269Z,101432.47
2023-02-25T15:39:56.448Z,101437.59
2023-02-25T15:42:52.954Z,101443.75
2023-02-25T15:45:38.229Z,101443.28
2023-02-25T15:48:31.969Z,101445.22
2023-02-25T15:51:10.324Z,101451.66
2023-02-25T15:53:48.317Z,101449.28
2023-02-25T15:56:56.926Z,101453.25
2023-02-25T15:59:45.349Z,101468.22
2023-02-25T16:02:46.422Z,101465.97
2023-02-25T16:05:28.122Z,101463.09
2023-02-25T16:08:14.206Z,101476.63
2023-02-25T16:10:53.908Z,101483.06
2023-02-25T16:13:38.744Z,101478.75
2023-02-25T16:16:14.097Z,101485.06
2023-02-25T16:18:50.434Z,101485.84
2023-02-25T16:21:27.343Z,101494.03
2023-02-25T16:24:01.724Z,101493.53
2023-02-25T16:26:45.128Z,101506.06
2023-02-25T16:29:35.117Z,101501.94
2023-02-25T16:32:17.730Z,101516.72
2023-02-25T16:34:56.229Z,101519.59
2023-02-25T16:37:37.250Z,101521.06
2023-02-25T16:40:15.889Z,101519.44
2023-02-25T16:42:50.478Z,101532.47
2023-02-25T16:45:28.228Z,101529.25
2023-02-25T16:48:05.475Z,101534.72
2023-02-25T16:50:38.378Z,101529.25
2023-02-25T16:53:18.794Z,101547.88
2023-02-25T16:55:58.239Z,101547.59
2023-02-25T16:58:32.469Z,101552.84
2023-02-25T17:01:07.608Z,101551.59
2023-02-25T17:03:47.447Z,101563.66
2023-02-25T17:06:21.311Z,101567.16
2023-02-25T17:08:54.160Z,101567.38
2023-02-25T17:11:27.648Z,101571.19
2023-02-25T17:14:05.478Z,101569.63
2023-02-25T17:16:43.543Z,101567.88
2023-02-25T17:19:20.689Z,101572.34
2023-02-25T17:21:56.930Z,101574.28
2023-02-25T17:24:33.152Z,101580.06
2023-02-25T17:27:12.350Z,101588.56
2023-02-25T17:29:46.675Z,101582.94
2023-02-25T17:32:22.577Z,101586.34
2023-02-25T17:34:58.880Z,101601.06
2023-02-25T17:37:33.021Z,101597.56
2023-02-25T17:40:10.465Z,101588.28
2023-02-25T17:42:44.235Z,101591.31
2023-02-25T17:45:44.537Z,101585.91
2023-02-25T17:48:19.743Z,101592.94
2023-02-25T17:50:55.678Z,101603.84
2023-02-25T17:53:40.462Z,101606.72
2023-02-25T17:56:25.014Z,101613.75
2023-02-25T17:59:02.633Z,101613.63
2023-02-25T18:01:53.976Z,101619.69
2023-02-25T18:04:35.131Z,101628.19
2023-02-25T18:07:21.702Z,101615.22
2023-02-25T18:09:54.700Z,101629.78
2023-02-25T18:12:29.014Z,101640.38
2023-02-25T18:15:04.150Z,101641.31
2023-02-25T18:17:40.777Z,101637.31
2023-02-25T18:20:29.298Z,101637.31
2023-02-25T18:23:03.550Z,101643.56
2023-02-25T18:25:38.447Z,101658.13
2023-02-25T18:28:16.741Z,101659.25
2023-02-25T18:30:51.286Z,101664.22
2023-02-25T18:33:25.536Z,101665.50
2023-02-25T18:35:59.347Z,101665.50
2023-02-25T18:38:32.869Z,101685.53
2023-02-25T18:41:07.237Z,101681.63
2023-02-25T18:43:42.063Z,101685.66
2023-02-25T18:46:15.707Z,101681.81
2023-02-25T18:48:50.053Z,101684.69
2023-02-25T18:51:23.799Z,101695.41
2023-02-25T18:53:56.821Z,101696.22
2023-02-25T18:56:29.531Z,101697.00
2023-02-25T18:59:02.270Z,101694.09
2023-02-25T19:01:35.594Z,101698.47
2023-02-25T19:04:15.981Z,101700.84
2023-02-25T19:06:49.867Z,101701.00
2023-02-25T19:09:24.947Z,101700.19
2023-02-25T19:11:57.776Z,101702.91
2023-02-25T19:14:30.595Z,101703.06
2023-02-25T19:17:03.813Z,101711.09
2023-02-25T19:19:38.366Z,101704.84
2023-02-25T19:22:12.781Z,101706.44
2023-02-25T19:24:48.291Z,101708.22
2023-02-25T19:27:23.397Z,101711.22
2023-02-25T19:29:59.339Z,101722.28
2023-02-25T19:32:32.475Z,101713.47
2023-02-25T19:35:10.453Z,101720.34
2023-02-25T19:37:43.928Z,101723.34
2023-02-25T19:40:17.549Z,101727.19
2023-02-25T19:42:50.617Z,101729.13
2023-02-25T19:45:25.373Z,101738.25
2023-02-25T19:47:58.552Z,101735.38
2023-02-25T19:50:34.912Z,101730.22
2023-02-25T19:53:07.874Z,101731.31
2023-02-25T19:55:43.274Z,101735.47
2023-02-25T19:58:16.593Z,101742.69
2023-02-25T20:00:49.933Z,101742.34
2023-02-25T20:03:23.134Z,101746.19
2023-02-25T20:05:57.670Z,101746.19
2023-02-25T20:08:30.936Z,101751.50
2023-02-25T20:11:04.291Z,101760.72
2023-02-25T20:13:38.397Z,101757.75
2023-02-25T20:16:11.612Z,101765.72
2023-02-25T20:18:44.520Z,101762.38
2023-02-25T20:21:19.115Z,101771.78
2023-02-25T20:23:52.410Z,101769.19
2023-02-25T20:26:25.952Z,101779.28
2023-02-25T20:28:58.926Z,101766.78
2023-02-25T20:31:31.998Z,101768.22
2023-02-25T20:34:05.871Z,101772.03
2023-02-25T20:36:45.019Z,101768.72
2023-02-25T20:39:34.477Z,101765.63
2023-02-25T20:42:11.845Z,101775.28
2023-02-25T20:44:45.937Z,101777.78
2023-02-25T20:47:21.896Z,101774.28
2023-02-25T20:49:56.479Z,101781.50
2023-02-25T20:52:30.966Z,101783.38
2023-02-25T20:55:06.624Z,101778.56
2023-02-25T20:57:39.857Z,101791.22
2023-02-25T21:00:16.440Z,101791.03
2023-02-25T21:02:49.588Z,101794.06
2023-02-25T21:05:22.454Z,101794.06
2023-02-25T21:07:57.967Z,101797.22
2023-02-25T21:10:31.406Z,101806.19
2023-02-25T21:13:04.742Z,101804.78
2023-02-25T21:15:37.987Z,101809.53
2023-02-25T21:18:11.682Z,101817.06
2023-02-25T21:20:44.582Z,101819.28
2023-02-25T21:23:19.130Z,101817.84
2023-02-25T21:25:52.125Z,101812.72
2023-02-25T21:28:25.581Z,101818.66
2023-02-25T21:31:01.789Z,101822.94
2023-02-25T21:33:35.138Z,101823.13
2023-02-25T21:36:12.414Z,101821.47
2023-02-25T21:38:46.845Z,101826.31
2023-02-25T21:41:20.274Z,101819.56
2023-02-25T21:43:54.055Z,101829.31
2023-02-25T21:46:28.988Z,101827.56
2023-02-25T21:49:02.345Z,101823.72
2023-02-25T21:51:44.702Z,101830.09
2023-02-25T21:54:19.648Z,101834.06
2023-02-25T21:56:53.087Z,101825.47
2023-02-25T21:59:27.876Z,101829.91
2023-02-25T22:02:01.469Z,101835.66
2023-02-25T22:04:34.667Z,101846.47
2023-02-25T22:07:07.998Z,101845.34
2023-02-25T22:09:43.509Z,101847.59
2023-02-25T22:12:36.106Z,101847.59
2023-02-25T22:15:19.531Z,101856.84
2023-02-25T22:17:53.211Z,101850.78
2023-02-25T22:20:26.963Z,101860.06
2023-02-25T22:23:00.435Z,101861.34
2023-02-25T22:25:34.863Z,101858.06
2023-02-25T22:28:08.134Z,101853.63
2023-02-25T22:30:41.961Z,101850.41
2023-02-25T22:33:18.506Z,101850.63
2023-02-25T22:35:57.708Z,101856.34
2023-02-25T22:38:32.105Z,101850.09
2023-02-25T22:41:14.618Z,101857.13
2023-02-25T22:43:50.619Z,101858.88
2023-02-25T22:46:26.053Z,101855.84
2023-02-25T22:48:59.800Z,101852.38
2023-02-25T22:51:36.026Z,101859.38
2023-02-25T22:54:09.553Z,101864.47
2023-02-25T22:56:45.161Z,101860.59
2023-02-25T22:59:18.912Z,101866.31
2023-02-25T23:01:53.201Z,101857.06
2023-02-25T23:04:28.031Z,101866.81
2023-02-25T23:07:01.740Z,101868.16
2023-02-25T23:09:35.220Z,101855.66
2023-02-25T23:12:10.318Z,101858.66
2023-02-25T23:14:43.678Z,101863.44
2023-02-25T23:17:19.943Z,101858.50
2023-02-25T23:19:58.820Z,101856.69
2023-02-25T23:22:34.247Z,101859.72
2023-02-25T23:25:10.322Z,101867.34
2023-02-25T23:27:46.080Z,101861.28
2023-02-25T23:30:19.908Z,101855.34
2023-02-25T23:32:53.347Z,101856.97
2023-02-25T23:35:27.429Z,101853.75
2023-02-25T23:38:00.661Z,101851.31
2023-02-25T23:40:33.820Z,101854.88
2023-02-25T23:43:10.919Z,101864.09
2023-02-25T23:45:46.855Z,101870.16
2023-02-25T23:48:21.122Z,101875.22
2023-02-25T23:50:54.496Z,101879.44
2023-02-25T23:53:28.163Z,101888.31
2023-02-25T23:56:06.529Z,101888.31
2023-02-25T23:58:41.810Z,101888.31
